Time;durP1;ratioP1;P1;durP2;ratioP2;P2;SDS_P1;SDS_P2;PMS_P1;PMS_P2;Temp;Humidity;BMP_temperature;BMP_pressure;BME280_temperature;BME280_humidity;BME280_pressure;Samples;Min_cycle;Max_cycle;Signal;HPM_P1;HPM_P2
2021/12/09 00:01:41;;;;;;;8.82;2.03;;;6.50;99.90;;;;;;5023084;28;20745;-58
2021/12/09 00:04:11;;;;;;;7.43;2.22;;;6.50;99.90;;;;;;5023712;28;20441;-57
2021/12/09 00:06:38;;;;;;;4.93;1.80;;;6.50;99.90;;;;;;5023112;28;20166;-57
2021/12/09 00:09:14;;;;;;;5.80;1.52;;;6.50;99.90;;;;;;5023832;28;20087;-57
2021/12/09 00:11:45;;;;;;;8.40;2.00;;;6.40;99.90;;;;;;5022820;28;20081;-56
2021/12/09 00:14:15;;;;;;;10.60;2.17;;;6.50;99.90;;;;;;5021374;28;20095;-57
2021/12/09 00:16:42;;;;;;;5.95;2.08;;;6.40;99.90;;;;;;5020602;28;20057;-56
2021/12/09 00:19:10;;;;;;;9.38;1.83;;;6.40;99.90;;;;;;5022554;28;20049;-57
2021/12/09 00:21:36;;;;;;;6.43;2.10;;;6.40;99.90;;;;;;5022513;28;20480;-57
2021/12/09 00:24:04;;;;;;;7.18;2.40;;;6.40;99.90;;;;;;5023461;28;20085;-55
2021/12/09 00:26:30;;;;;;;6.70;2.03;;;6.40;99.90;;;;;;5023031;28;20152;-57
2021/12/09 00:28:57;;;;;;;4.43;1.65;;;6.30;99.90;;;;;;5024124;28;20187;-57
2021/12/09 00:31:24;;;;;;;6.18;1.70;;;6.30;99.90;;;;;;5022503;28;20058;-57
2021/12/09 00:33:55;;;;;;;7.70;2.13;;;6.30;99.90;;;;;;5022884;28;20137;-56
2021/12/09 00:36:33;;;;;;;4.50;1.80;;;6.30;99.90;;;;;;5022873;28;20089;-58
2021/12/09 00:39:00;;;;;;;5.28;2.13;;;6.30;99.90;;;;;;5023588;28;20073;-57
2021/12/09 00:41:26;;;;;;;6.35;1.95;;;6.20;99.90;;;;;;5023228;28;20560;-57
2021/12/09 00:43:53;;;;;;;6.43;1.80;;;6.30;99.90;;;;;;5022500;28;20049;-57
2021/12/09 00:46:20;;;;;;;6.55;2.05;;;6.30;99.90;;;;;;5021799;28;20567;-58
2021/12/09 00:48:47;;;;;;;5.95;1.90;;;6.20;99.90;;;;;;5021813;28;20084;-57
2021/12/09 00:51:14;;;;;;;8.00;2.03;;;6.20;99.90;;;;;;5022574;28;20453;-58
2021/12/09 00:53:41;;;;;;;6.18;2.22;;;6.20;99.90;;;;;;5022103;28;20128;-57
2021/12/09 00:56:09;;;;;;;8.50;2.60;;;6.20;99.90;;;;;;5021441;28;20108;-57
2021/12/09 00:58:38;;;;;;;11.05;2.55;;;6.20;99.90;;;;;;5022589;28;20115;-56
2021/12/09 01:01:06;;;;;;;7.20;2.20;;;6.20;99.90;;;;;;5020529;28;20095;-57
2021/12/09 01:03:34;;;;;;;6.57;1.95;;;6.20;99.90;;;;;;5018923;28;20045;-57
2021/12/09 01:06:01;;;;;;;7.22;1.48;;;6.20;99.90;;;;;;5022952;28;20049;-57
2021/12/09 01:08:40;;;;;;;6.20;1.98;;;6.30;99.90;;;;;;5021747;28;20428;-56
2021/12/09 01:11:07;;;;;;;5.65;1.90;;;6.30;99.90;;;;;;5021237;28;20057;-57
2021/12/09 01:13:34;;;;;;;5.90;1.60;;;6.30;99.90;;;;;;5022719;28;20132;-59
2021/12/09 01:16:00;;;;;;;7.88;1.85;;;6.30;99.90;;;;;;5021510;28;20128;-59
2021/12/09 01:18:31;;;;;;;6.20;2.42;;;6.30;99.90;;;;;;5022422;28;20260;-59
2021/12/09 01:20:59;;;;;;;5.90;2.00;;;6.30;99.90;;;;;;5021649;28;20065;-59
2021/12/09 01:23:25;;;;;;;7.05;2.20;;;6.30;99.90;;;;;;5022421;28;20075;-59
2021/12/09 01:25:58;;;;;;;7.32;1.92;;;6.30;99.90;;;;;;5021392;28;20663;-58
2021/12/09 01:28:28;;;;;;;6.68;1.90;;;6.30;99.90;;;;;;5018694;28;20103;-59
2021/12/09 01:31:03;;;;;;;9.02;2.60;;;6.40;99.90;;;;;;5019298;28;20084;-58
2021/12/09 01:33:30;;;;;;;7.90;2.78;;;6.30;99.90;;;;;;5020779;28;20100;-60
2021/12/09 01:35:57;;;;;;;9.05;2.65;;;6.40;99.90;;;;;;5018193;28;20081;-59
2021/12/09 01:38:27;;;;;;;9.93;2.60;;;6.40;99.90;;;;;;5020611;28;20073;-57
2021/12/09 01:40:55;;;;;;;6.18;2.42;;;6.40;99.90;;;;;;5021314;28;20053;-59
2021/12/09 01:43:22;;;;;;;9.27;2.83;;;6.40;99.90;;;;;;5021549;28;20147;-59
2021/12/09 01:45:49;;;;;;;8.00;2.13;;;6.40;99.90;;;;;;5020321;28;20052;-59
2021/12/09 01:48:16;;;;;;;10.88;3.45;;;6.40;99.90;;;;;;5020331;28;20049;-54
2021/12/09 01:50:42;;;;;;;5.30;1.80;;;6.40;99.90;;;;;;5020971;28;20091;-59
2021/12/09 01:53:10;;;;;;;7.95;2.75;;;6.40;99.90;;;;;;5021667;28;20133;-58
2021/12/09 01:55:37;;;;;;;9.98;3.20;;;6.50;99.90;;;;;;5012651;28;20181;-58
2021/12/09 01:58:03;;;;;;;6.07;1.80;;;6.50;99.90;;;;;;5021737;28;20056;-57
2021/12/09 02:00:31;;;;;;;6.55;2.13;;;6.50;99.90;;;;;;5020052;28;20046;-58
2021/12/09 02:03:02;;;;;;;7.07;1.70;;;6.50;99.90;;;;;;5021683;28;20049;-59
2021/12/09 02:05:29;;;;;;;9.77;2.20;;;6.50;99.90;;;;;;5020977;28;20531;-55
2021/12/09 02:07:56;;;;;;;11.73;2.63;;;6.50;99.90;;;;;;5021076;28;20060;-58
2021/12/09 02:10:22;;;;;;;8.90;2.45;;;6.50;99.90;;;;;;5021144;28;20081;-58
2021/12/09 02:12:50;;;;;;;7.18;2.67;;;6.50;99.90;;;;;;5021966;28;20115;-59
2021/12/09 02:15:18;;;;;;;7.82;2.63;;;6.50;99.90;;;;;;5019721;28;20123;-57
2021/12/09 02:17:44;;;;;;;8.52;2.50;;;6.50;99.90;;;;;;5021892;28;20082;-59
2021/12/09 02:20:11;;;;;;;7.15;2.78;;;6.50;99.90;;;;;;4979853;28;1200672;-59
2021/12/09 02:22:38;;;;;;;7.13;2.00;;;6.50;99.90;;;;;;5022212;28;20096;-56
2021/12/09 02:25:05;;;;;;;8.52;2.05;;;6.50;99.90;;;;;;5021628;28;20999;-58
2021/12/09 02:27:32;;;;;;;7.25;2.15;;;6.50;99.90;;;;;;5022057;28;20092;-60
2021/12/09 02:29:59;;;;;;;7.53;2.28;;;6.50;99.90;;;;;;5020902;28;20132;-60
2021/12/09 02:32:26;;;;;;;7.47;2.42;;;6.50;99.90;;;;;;5019588;28;20100;-58
2021/12/09 02:34:52;;;;;;;8.88;2.45;;;6.50;99.90;;;;;;5004056;28;20466;-57
2021/12/09 02:37:19;;;;;;;6.13;1.80;;;6.50;99.90;;;;;;5003819;28;20169;-59
2021/12/09 02:39:46;;;;;;;6.28;2.17;;;6.50;99.90;;;;;;5003219;28;20081;-57
2021/12/09 02:42:13;;;;;;;7.45;1.83;;;6.50;99.90;;;;;;5017077;28;20385;-58
2021/12/09 02:44:39;;;;;;;11.10;2.33;;;6.50;99.90;;;;;;5022525;28;20084;-58
2021/12/09 02:47:06;;;;;;;7.25;1.92;;;6.50;99.90;;;;;;5024328;28;20077;-60
2021/12/09 02:49:33;;;;;;;8.85;1.67;;;6.50;99.90;;;;;;5025307;28;20050;-58
2021/12/09 02:52:01;;;;;;;5.63;1.55;;;6.50;99.90;;;;;;5025086;28;20100;-58
2021/12/09 02:54:28;;;;;;;6.00;1.80;;;6.50;99.90;;;;;;5024248;28;20049;-55
2021/12/09 02:56:58;;;;;;;8.35;1.85;;;6.50;99.90;;;;;;5026071;28;20152;-59
2021/12/09 02:59:25;;;;;;;5.95;2.13;;;6.50;99.90;;;;;;5024889;28;20429;-59
2021/12/09 03:01:59;;;;;;;5.00;2.00;;;6.40;99.90;;;;;;5024778;28;20497;-60
2021/12/09 03:04:43;;;;;;;8.57;2.00;;;6.40;99.90;;;;;;5025465;28;20517;-56
2021/12/09 03:07:23;;;;;;;7.63;1.80;;;6.40;99.90;;;;;;5024851;28;20045;-61
2021/12/09 03:09:53;;;;;;;6.20;2.28;;;6.30;99.90;;;;;;5025530;28;20085;-56
2021/12/09 03:12:26;;;;;;;7.38;2.15;;;6.30;99.90;;;;;;5024415;28;20668;-60
2021/12/09 03:14:53;;;;;;;;;;;6.20;99.90;;;;;;5024573;28;20084;-57
2021/12/09 03:17:20;;;;;;;5.93;2.05;;;6.20;99.90;;;;;;5025507;28;20555;-60
2021/12/09 03:19:47;;;;;;;5.47;1.80;;;6.20;99.90;;;;;;5018955;28;20063;-57
2021/12/09 03:22:14;;;;;;;9.98;1.88;;;6.20;99.90;;;;;;5027855;28;20223;-58
2021/12/09 03:24:40;;;;;;;4.50;1.60;;;6.10;99.90;;;;;;5021450;28;20107;-58
2021/12/09 03:27:07;;;;;;;4.78;1.65;;;6.10;99.90;;;;;;5009124;28;20520;-59
2021/12/09 03:29:34;;;;;;;7.45;2.25;;;6.10;99.90;;;;;;5007210;28;20184;-61
2021/12/09 03:32:05;;;;;;;3.65;1.50;;;6.00;99.90;;;;;;5008782;28;20077;-59
2021/12/09 03:34:32;;;;;;;7.68;2.03;;;6.00;99.90;;;;;;5028567;28;20118;-58
2021/12/09 03:37:00;;;;;;;7.38;2.63;;;6.00;99.90;;;;;;5027328;28;20136;-59
2021/12/09 03:39:31;;;;;;;6.53;1.88;;;6.00;99.90;;;;;;5028642;28;20136;-59
2021/12/09 03:41:58;;;;;;;7.10;2.20;;;5.90;99.90;;;;;;5027673;28;20074;-59
2021/12/09 03:44:26;;;;;;;6.63;1.98;;;5.90;99.90;;;;;;5027200;28;20137;-58
2021/12/09 03:46:54;;;;;;;4.15;1.98;;;5.90;99.90;;;;;;5027731;28;20137;-59
2021/12/09 03:49:21;;;;;;;7.30;1.90;;;5.90;99.90;;;;;;5028556;28;20045;-58
2021/12/09 03:51:47;;;;;;;5.78;2.20;;;5.90;99.90;;;;;;5027992;28;20132;-61
2021/12/09 03:54:14;;;;;;;11.57;2.42;;;5.90;99.90;;;;;;5028436;28;20072;-59
2021/12/09 03:56:41;;;;;;;6.88;1.92;;;5.90;99.90;;;;;;5027718;28;20076;-58
2021/12/09 03:59:08;;;;;;;7.68;1.58;;;5.90;99.90;;;;;;5026638;28;20061;-58
2021/12/09 04:01:36;;;;;;;6.35;2.40;;;5.90;99.90;;;;;;5027065;28;20653;-58
2021/12/09 04:04:03;;;;;;;5.70;1.92;;;5.90;99.90;;;;;;5027978;28;20041;-59
2021/12/09 04:06:30;;;;;;;5.93;1.88;;;5.90;99.90;;;;;;5027314;28;20135;-57
2021/12/09 04:08:57;;;;;;;8.00;1.90;;;6.00;99.90;;;;;;5028057;28;20069;-59
2021/12/09 04:11:24;;;;;;;4.45;1.95;;;5.90;99.90;;;;;;5025953;28;20068;-57
2021/12/09 04:13:51;;;;;;;6.20;1.80;;;5.90;99.90;;;;;;5027268;28;20083;-55
2021/12/09 04:16:18;;;;;;;4.18;1.30;;;5.90;99.90;;;;;;5025322;28;20080;-58
2021/12/09 04:18:45;;;;;;;3.13;1.35;;;5.90;99.90;;;;;;5028075;28;20057;-57
2021/12/09 04:21:12;;;;;;;8.48;2.13;;;5.90;99.90;;;;;;5027575;28;20084;-57
2021/12/09 04:23:39;;;;;;;9.00;2.05;;;5.90;99.90;;;;;;5027484;28;20080;-58
2021/12/09 04:26:06;;;;;;;5.35;1.95;;;5.90;99.90;;;;;;5026116;28;20089;-58
2021/12/09 04:28:33;;;;;;;6.10;1.83;;;5.90;99.90;;;;;;5027542;28;20167;-57
2021/12/09 04:31:00;;;;;;;6.57;2.28;;;5.80;99.90;;;;;;5023929;28;20045;-58
2021/12/09 04:33:29;;;;;;;7.30;1.50;;;5.80;99.90;;;;;;5026055;28;20041;-57
2021/12/09 04:35:57;;;;;;;6.28;2.00;;;5.80;99.90;;;;;;5025365;28;20053;-56
2021/12/09 04:38:23;;;;;;;5.82;2.08;;;5.80;99.90;;;;;;5026950;28;20088;-57
2021/12/09 04:40:50;;;;;;;4.22;1.20;;;5.80;99.90;;;;;;5025483;28;20144;-57
2021/12/09 04:43:17;;;;;;;3.78;1.10;;;5.80;99.90;;;;;;5024891;28;20556;-57
2021/12/09 04:45:44;;;;;;;3.92;1.23;;;5.80;99.90;;;;;;5025964;28;20084;-57
2021/12/09 04:48:11;;;;;;;5.82;1.88;;;5.80;99.90;;;;;;5027233;28;20485;-56
2021/12/09 04:50:38;;;;;;;4.00;1.40;;;5.70;99.90;;;;;;5026362;28;20077;-57
2021/12/09 04:53:07;;;;;;;4.45;1.40;;;5.80;99.90;;;;;;5026885;28;20056;-57
2021/12/09 04:55:34;;;;;;;7.05;1.73;;;5.80;99.90;;;;;;5026602;28;20136;-55
2021/12/09 04:58:01;;;;;;;4.60;1.60;;;5.70;99.90;;;;;;5026944;28;20061;-60
2021/12/09 05:00:29;;;;;;;6.38;1.85;;;5.70;99.90;;;;;;5025596;28;20477;-57
2021/12/09 05:05:33;;;;;;;3.83;1.50;;;5.70;99.90;;;;;;5026492;28;20056;-56
2021/12/09 05:08:00;;;;;;;5.15;1.70;;;5.70;99.90;;;;;;5025849;28;20164;-58
2021/12/09 05:10:27;;;;;;;6.30;1.60;;;5.70;99.90;;;;;;5027038;28;20500;-56
2021/12/09 05:12:54;;;;;;;3.33;1.20;;;5.70;99.90;;;;;;5026504;28;20099;-56
2021/12/09 05:15:21;;;;;;;4.88;1.38;;;5.70;99.90;;;;;;5025611;28;20133;-57
2021/12/09 05:17:47;;;;;;;9.75;2.10;;;5.60;99.90;;;;;;5025542;28;20125;-56
2021/12/09 05:20:14;;;;;;;5.63;1.60;;;5.60;99.90;;;;;;5026152;28;20136;-57
2021/12/09 05:22:41;;;;;;;6.10;1.70;;;5.60;99.90;;;;;;5026562;28;20132;-59
2021/12/09 05:25:08;;;;;;;4.75;1.60;;;5.60;99.90;;;;;;5025882;28;20128;-57
2021/12/09 05:27:37;;;;;;;7.22;1.95;;;5.60;99.90;;;;;;5026186;28;20099;-57
2021/12/09 05:30:07;;;;;;;5.88;1.58;;;5.60;99.90;;;;;;5023023;28;20099;-55
2021/12/09 05:32:34;;;;;;;5.13;1.40;;;5.50;99.90;;;;;;5022127;28;20125;-57
2021/12/09 05:35:01;;;;;;;5.05;1.83;;;5.50;99.90;;;;;;5017524;28;20702;-56
2021/12/09 05:37:28;;;;;;;5.63;1.95;;;5.50;99.90;;;;;;5014077;28;20083;-57
2021/12/09 05:39:56;;;;;;;5.88;1.77;;;5.40;99.90;;;;;;5017328;28;20073;-57
2021/12/09 05:42:27;;;;;;;5.35;1.70;;;5.40;99.90;;;;;;5018061;28;20127;-57
2021/12/09 05:44:54;;;;;;;6.63;1.88;;;5.40;99.90;;;;;;5016666;28;20135;-58
2021/12/09 05:47:21;;;;;;;7.13;1.73;;;5.40;99.90;;;;;;5018267;28;20464;-57
2021/12/09 05:49:48;;;;;;;4.97;1.75;;;5.40;99.90;;;;;;5017545;28;20141;-55
2021/12/09 05:52:15;;;;;;;5.65;1.50;;;5.40;99.90;;;;;;5014423;28;20129;-57
2021/12/09 05:54:42;;;;;;;5.38;1.50;;;5.40;99.90;;;;;;5019101;28;20139;-57
2021/12/09 05:57:09;;;;;;;7.80;2.20;;;5.40;99.90;;;;;;5018901;28;20053;-55
2021/12/09 05:59:40;;;;;;;5.22;1.90;;;5.30;99.90;;;;;;5017224;28;20084;-53
2021/12/09 06:02:09;;;;;;;5.05;1.80;;;5.30;99.90;;;;;;5016191;28;20546;-55
2021/12/09 06:04:36;;;;;;;4.10;1.45;;;5.30;99.90;;;;;;5018167;28;20128;-57
2021/12/09 06:07:03;;;;;;;6.18;1.77;;;5.20;99.90;;;;;;5017839;28;20061;-58
2021/12/09 06:09:30;;;;;;;7.63;2.13;;;5.20;99.90;;;;;;5016563;28;20077;-53
2021/12/09 06:11:57;;;;;;;7.45;2.15;;;5.20;99.90;;;;;;5016990;28;20146;-56
2021/12/09 06:14:24;;;;;;;5.70;1.45;;;5.20;99.90;;;;;;5015953;28;20073;-57
2021/12/09 06:16:51;;;;;;;6.65;1.67;;;5.10;99.90;;;;;;5014287;28;20088;-56
2021/12/09 06:19:18;;;;;;;7.38;1.35;;;5.10;99.90;;;;;;5016892;28;20558;-56
2021/12/09 06:21:44;;;;;;;5.25;1.48;;;5.10;99.90;;;;;;5013518;28;20080;-56
2021/12/09 06:24:11;;;;;;;5.88;1.35;;;5.00;99.90;;;;;;5016892;28;20130;-57
2021/12/09 06:26:38;;;;;;;7.20;1.50;;;5.00;99.90;;;;;;5014748;28;20077;-54
2021/12/09 06:29:07;;;;;;;5.18;1.95;;;5.00;99.90;;;;;;5011962;28;20119;-56
2021/12/09 06:31:34;;;;;;;6.32;1.42;;;5.00;99.90;;;;;;5015324;28;20073;-57
2021/12/09 06:34:01;;;;;;;3.25;1.23;;;5.00;99.90;;;;;;5016480;28;20143;-54
2021/12/09 06:36:27;;;;;;;4.90;1.40;;;4.90;99.90;;;;;;5014785;28;20057;-55
2021/12/09 06:38:54;;;;;;;4.80;1.50;;;4.90;99.90;;;;;;5015514;28;20137;-56
2021/12/09 06:41:22;;;;;;;5.10;1.38;;;4.90;99.90;;;;;;5015430;28;20049;-54
2021/12/09 06:43:48;;;;;;;3.78;1.17;;;4.80;99.90;;;;;;5014372;28;20061;-55
2021/12/09 06:46:15;;;;;;;3.30;1.25;;;4.80;99.90;;;;;;5015574;28;20140;-58
2021/12/09 06:48:42;;;;;;;7.43;1.50;;;4.80;99.90;;;;;;5015615;28;20053;-55
2021/12/09 06:51:09;;;;;;;10.50;1.92;;;4.80;99.90;;;;;;5015055;28;20045;-57
2021/12/09 06:53:36;;;;;;;4.80;1.60;;;4.80;99.90;;;;;;5017050;28;20095;-57
2021/12/09 06:56:03;;;;;;;5.53;1.35;;;4.80;99.90;;;;;;5018554;28;20157;-57
2021/12/09 06:58:30;;;;;;;3.72;1.80;;;4.70;99.90;;;;;;5020378;28;20072;-54
2021/12/09 07:00:57;;;;;;;8.32;1.70;;;4.70;99.90;;;;;;5018497;28;20136;-56
2021/12/09 07:03:24;;;;;;;3.58;1.80;;;4.80;99.90;;;;;;5020939;28;20536;-56
2021/12/09 07:05:52;;;;;;;4.80;1.50;;;4.80;99.90;;;;;;5020401;28;20148;-56
2021/12/09 07:08:19;;;;;;;7.10;1.50;;;4.70;99.90;;;;;;5021100;28;20128;-57
2021/12/09 07:10:47;;;;;;;5.07;1.58;;;4.80;99.90;;;;;;5021630;28;20081;-56
2021/12/09 07:13:14;;;;;;;3.85;2.15;;;4.70;99.90;;;;;;5019558;28;20103;-57
2021/12/09 07:15:40;;;;;;;6.15;1.88;;;4.70;99.90;;;;;;5019763;28;20141;-55
2021/12/09 07:18:07;;;;;;;7.15;1.88;;;4.70;99.90;;;;;;5019336;28;20132;-55
2021/12/09 07:20:34;;;;;;;5.90;1.63;;;4.70;99.90;;;;;;5017621;28;20088;-56
2021/12/09 07:23:01;;;;;;;5.03;1.70;;;4.60;99.90;;;;;;5018556;28;20136;-55
2021/12/09 07:25:28;;;;;;;4.55;1.70;;;4.60;99.90;;;;;;5021290;28;20053;-57
2021/12/09 07:27:55;;;;;;;2.40;0.95;;;4.60;99.90;;;;;;5021021;28;20072;-57
2021/12/09 07:30:23;;;;;;;4.70;1.50;;;4.60;99.90;;;;;;5018728;28;20727;-57
2021/12/09 07:32:50;;;;;;;10.23;2.28;;;4.60;99.90;;;;;;5020513;28;20655;-56
2021/12/09 07:35:17;;;;;;;5.63;1.50;;;4.60;99.90;;;;;;5018118;28;20140;-59
2021/12/09 07:37:44;;;;;;;6.35;1.83;;;4.60;99.90;;;;;;5022089;28;20049;-56
2021/12/09 07:40:14;;;;;;;5.88;1.48;;;4.60;99.90;;;;;;5021846;28;20535;-58
2021/12/09 07:42:40;;;;;;;4.15;1.40;;;4.60;99.90;;;;;;5021590;28;20084;-56
2021/12/09 07:45:08;;;;;;;7.60;2.92;;;4.60;99.90;;;;;;5018780;28;20128;-56
2021/12/09 07:47:35;;;;;;;3.08;1.50;;;4.60;99.90;;;;;;5020610;28;20077;-60
2021/12/09 07:50:03;;;;;;;5.70;1.58;;;4.70;99.90;;;;;;5020772;28;20049;-56
2021/12/09 07:52:30;;;;;;;5.20;1.63;;;4.70;99.90;;;;;;5020642;28;20556;-56
2021/12/09 07:54:57;;;;;;;5.38;1.65;;;4.70;99.90;;;;;;5021509;28;20132;-57
2021/12/09 07:57:23;;;;;;;6.95;2.35;;;4.70;99.90;;;;;;5021296;28;20548;-57
2021/12/09 07:59:50;;;;;;;8.48;1.50;;;4.70;99.90;;;;;;5018873;28;20064;-58
2021/12/09 08:02:17;;;;;;;2.63;1.63;;;4.70;99.90;;;;;;5021328;28;20489;-58
2021/12/09 08:04:44;;;;;;;7.72;1.90;;;4.80;99.90;;;;;;5020926;28;20072;-55
2021/12/09 08:07:11;;;;;;;2.88;1.50;;;4.80;99.90;;;;;;5020413;28;20128;-58
2021/12/09 08:09:37;;;;;;;6.28;1.50;;;4.80;99.90;;;;;;5020662;28;20484;-56
2021/12/09 08:12:04;;;;;;;4.75;1.75;;;4.90;99.90;;;;;;5020294;28;20078;-56
2021/12/09 08:14:31;;;;;;;3.38;1.38;;;4.90;99.90;;;;;;5020005;28;20148;-55
2021/12/09 08:17:34;;;;;;;8.13;2.40;;;4.90;99.90;;;;;;5019151;28;20481;-57
2021/12/09 08:20:00;;;;;;;8.80;1.80;;;5.00;99.90;;;;;;5020451;28;20588;-56
2021/12/09 08:22:27;;;;;;;6.78;1.92;;;5.00;99.90;;;;;;5013339;28;20545;-55
2021/12/09 08:24:55;;;;;;;4.53;1.60;;;5.00;99.90;;;;;;5018698;28;20687;-57
2021/12/09 08:27:22;;;;;;;6.50;1.83;;;5.00;99.90;;;;;;5019503;28;20053;-55
2021/12/09 08:29:49;;;;;;;8.18;1.80;;;5.00;99.90;;;;;;5016791;28;20172;-56
2021/12/09 08:32:16;;;;;;;4.70;1.50;;;5.00;99.90;;;;;;5018561;28;20493;-55
2021/12/09 08:34:43;;;;;;;7.20;2.30;;;5.10;99.90;;;;;;5020089;28;20509;-56
2021/12/09 08:37:10;;;;;;;6.47;2.22;;;5.10;99.90;;;;;;5019622;28;20073;-55
2021/12/09 08:39:36;;;;;;;10.32;2.58;;;5.10;99.90;;;;;;5019894;28;20128;-55
2021/12/09 08:42:03;;;;;;;11.77;2.65;;;5.20;99.90;;;;;;5019307;28;20156;-56
2021/12/09 08:44:30;;;;;;;8.45;2.20;;;5.20;99.90;;;;;;5018204;28;20140;-54
2021/12/09 08:46:57;;;;;;;4.80;1.55;;;5.30;99.90;;;;;;5019428;28;20156;-59
2021/12/09 08:49:24;;;;;;;5.40;1.90;;;5.30;99.90;;;;;;5020129;28;20058;-54
2021/12/09 08:51:50;;;;;;;5.88;1.52;;;5.40;99.90;;;;;;5019005;28;20160;-56
2021/12/09 08:54:17;;;;;;;7.93;1.75;;;5.40;99.90;;;;;;5019822;28;20417;-57
2021/12/09 08:56:50;;;;;;;6.22;1.80;;;5.40;99.90;;;;;;5019338;28;20045;-56
2021/12/09 08:59:21;;;;;;;6.32;2.17;;;5.40;99.90;;;;;;5017037;28;20053;-51
2021/12/09 09:02:05;;;;;;;5.50;1.63;;;5.40;99.90;;;;;;5019177;28;20050;-56
2021/12/09 09:04:32;;;;;;;7.95;1.90;;;5.50;99.90;;;;;;5017373;28;20055;-54
2021/12/09 09:06:59;;;;;;;3.45;1.33;;;5.50;99.90;;;;;;5017023;28;20140;-56
2021/12/09 09:09:32;;;;;;;4.45;1.45;;;5.60;99.90;;;;;;5020231;28;20081;-51
2021/12/09 09:11:59;;;;;;;4.32;1.73;;;5.50;99.90;;;;;;5018536;28;20671;-53
2021/12/09 09:14:26;;;;;;;5.53;1.63;;;5.50;99.90;;;;;;5018787;28;20126;-51
2021/12/09 09:16:53;;;;;;;5.88;1.70;;;5.60;99.90;;;;;;5016490;28;20051;-53
2021/12/09 09:19:19;;;;;;;5.82;2.13;;;5.60;99.90;;;;;;5018600;28;20076;-56
2021/12/09 09:21:47;;;;;;;9.30;2.10;;;5.60;99.90;;;;;;5016663;28;20053;-55
2021/12/09 09:24:14;;;;;;;5.80;1.60;;;5.60;99.90;;;;;;5016924;28;20446;-51
2021/12/09 09:26:41;;;;;;;5.30;1.70;;;5.60;99.90;;;;;;5017501;28;20468;-54
2021/12/09 09:29:08;;;;;;;6.88;1.75;;;5.60;99.90;;;;;;5016486;28;20573;-55
2021/12/09 09:31:36;;;;;;;4.28;1.60;;;5.70;99.90;;;;;;5017652;28;20132;-53
2021/12/09 09:34:05;;;;;;;5.97;1.63;;;5.70;99.90;;;;;;5018475;28;20053;-54
2021/12/09 09:36:33;;;;;;;5.70;2.22;;;5.70;99.90;;;;;;5017342;28;20132;-56
2021/12/09 09:39:10;;;;;;;6.00;1.85;;;5.80;99.90;;;;;;5018744;28;20056;-55
2021/12/09 09:41:37;;;;;;;9.40;2.33;;;5.80;99.90;;;;;;5017710;28;20144;-55
2021/12/09 09:44:16;;;;;;;4.72;1.42;;;5.90;99.90;;;;;;5016719;28;20049;-56
2021/12/09 09:46:43;;;;;;;4.20;1.50;;;5.90;99.90;;;;;;5012817;28;20119;-57
2021/12/09 09:49:10;;;;;;;7.40;2.13;;;5.90;99.90;;;;;;5018883;28;20072;-56
2021/12/09 09:51:37;;;;;;;6.85;1.52;;;5.90;99.90;;;;;;5015761;28;20475;-53
2021/12/09 09:54:04;;;;;;;7.95;2.35;;;6.00;99.90;;;;;;5016894;28;20140;-55
2021/12/09 09:56:34;;;;;;;3.42;1.48;;;6.00;99.90;;;;;;5018276;28;20144;-56
2021/12/09 09:59:03;;;;;;;8.95;2.20;;;6.00;99.90;;;;;;5017390;28;20187;-55
2021/12/09 10:01:31;;;;;;;4.95;1.90;;;6.10;99.90;;;;;;5016959;28;20161;-53
2021/12/09 10:04:10;;;;;;;3.33;1.33;;;6.10;99.90;;;;;;5018055;28;20610;-53
2021/12/09 10:06:38;;;;;;;3.25;1.30;;;6.10;99.90;;;;;;5017566;28;20080;-56
2021/12/09 10:09:05;;;;;;;8.98;2.42;;;6.10;99.90;;;;;;5018520;28;20136;-56
2021/12/09 10:11:33;;;;;;;7.82;1.60;;;6.10;99.90;;;;;;5017794;28;20359;-49
2021/12/09 10:14:15;;;;;;;5.60;2.00;;;6.10;99.90;;;;;;5017927;28;20177;-54
2021/12/09 10:16:42;;;;;;;4.35;1.35;;;6.20;99.90;;;;;;5004076;28;20091;-55
2021/12/09 10:19:19;;;;;;;5.38;1.70;;;6.20;99.90;;;;;;5017413;28;20511;-56
2021/12/09 10:21:47;;;;;;;6.65;2.20;;;6.20;99.90;;;;;;5017343;28;20708;-56
2021/12/09 10:24:14;;;;;;;5.88;1.73;;;6.30;99.90;;;;;;5017869;28;20049;-51
2021/12/09 10:26:42;;;;;;;6.45;1.85;;;6.30;99.90;;;;;;5018003;28;20057;-54
2021/12/09 10:29:31;;;;;;;6.20;2.20;;;6.40;99.90;;;;;;5017588;28;20622;-56
2021/12/09 10:32:01;;;;;;;6.88;2.15;;;6.40;99.90;;;;;;5022399;28;20088;-53
2021/12/09 10:37:08;;;;;;;4.38;1.50;;;6.50;99.90;;;;;;5021714;28;20160;-54
2021/12/09 10:39:43;;;;;;;6.03;1.85;;;6.60;99.90;;;;;;5022443;28;20993;-56
2021/12/09 10:42:24;;;;;;;6.47;2.00;;;6.60;99.90;;;;;;5022397;28;20193;-56
2021/12/09 10:44:57;;;;;;;5.80;1.75;;;6.70;99.90;;;;;;5020246;28;20470;-56
2021/12/09 10:47:37;;;;;;;4.97;1.50;;;6.70;99.90;;;;;;5021443;28;20087;-55
2021/12/09 10:50:11;;;;;;;6.80;2.03;;;6.70;99.90;;;;;;5020996;28;20152;-56
2021/12/09 10:52:44;;;;;;;8.77;2.42;;;6.80;99.90;;;;;;5022349;28;20125;-56
2021/12/09 10:55:25;;;;;;;5.05;1.90;;;6.70;99.90;;;;;;5021445;28;20144;-53
2021/12/09 10:58:06;;;;;;;6.30;2.03;;;6.70;99.90;;;;;;5020656;28;20076;-53
2021/12/09 11:00:39;;;;;;;6.05;1.60;;;6.80;99.90;;;;;;5018880;28;20080;-55
2021/12/09 11:03:10;;;;;;;6.70;1.77;;;6.80;99.90;;;;;;5021448;28;20045;-54
2021/12/09 11:05:42;;;;;;;5.20;1.70;;;6.90;99.90;;;;;;5017626;28;20077;-56
2021/12/09 11:08:16;;;;;;;5.20;1.80;;;6.80;99.90;;;;;;5021765;28;20085;-53
2021/12/09 11:10:48;;;;;;;7.93;2.00;;;6.80;99.90;;;;;;5021433;28;20073;-55
2021/12/09 11:13:18;;;;;;;8.75;1.88;;;6.80;99.90;;;;;;5019763;28;20492;-53
2021/12/09 11:15:57;;;;;;;5.18;1.48;;;6.80;99.90;;;;;;5020809;28;20060;-51
2021/12/09 11:18:37;;;;;;;6.75;1.67;;;6.80;99.90;;;;;;5021265;28;20049;-55
2021/12/09 11:21:08;;;;;;;4.93;1.40;;;6.90;99.90;;;;;;5019821;28;20053;-55
2021/12/09 11:23:44;;;;;;;3.45;1.50;;;7.00;99.90;;;;;;5021497;28;20144;-55
2021/12/09 11:26:19;;;;;;;3.60;1.58;;;7.00;99.90;;;;;;5020557;28;20141;-55
2021/12/09 11:29:00;;;;;;;6.35;1.92;;;7.10;99.90;;;;;;5021164;28;20103;-55
2021/12/09 11:31:31;;;;;;;6.82;1.90;;;7.00;99.90;;;;;;5018679;28;20085;-55
2021/12/09 11:34:03;;;;;;;6.95;1.88;;;7.10;99.90;;;;;;5021319;28;20548;-55
2021/12/09 11:36:43;;;;;;;5.78;1.92;;;7.10;99.90;;;;;;5020949;28;20072;-54
2021/12/09 11:39:16;;;;;;;5.38;1.60;;;7.20;99.90;;;;;;5021407;28;20499;-54
2021/12/09 11:41:44;;;;;;;8.52;2.10;;;7.30;99.90;;;;;;5020341;28;20096;-55
2021/12/09 11:44:11;;;;;;;7.43;2.03;;;7.40;99.90;;;;;;5020858;28;20081;-55
2021/12/09 11:46:40;;;;;;;6.75;2.28;;;7.50;99.90;;;;;;5019667;28;20145;-56
2021/12/09 11:49:07;;;;;;;7.45;2.20;;;7.60;99.90;;;;;;5020705;28;20144;-55
2021/12/09 11:51:34;;;;;;;7.22;2.20;;;7.70;99.90;;;;;;5020504;28;20128;-55
2021/12/09 11:54:01;;;;;;;5.53;2.20;;;7.90;99.90;;;;;;5021038;28;20735;-56
2021/12/09 12:07:56;;;;;;;5.70;2.10;;;8.40;99.90;;;;;;5020509;28;20455;-55
2021/12/09 12:13:41;;;;;;;6.85;2.17;;;8.50;99.90;;;;;;5018722;28;20132;-56
2021/12/09 12:16:27;;;;;;;5.78;1.88;;;8.40;99.90;;;;;;5018394;28;20085;-55
2021/12/09 12:19:02;;;;;;;6.45;1.92;;;8.50;99.90;;;;;;5020608;28;20151;-56
2021/12/09 12:24:43;;;;;;;6.40;1.98;;;8.60;99.90;;;;;;5020020;28;20103;-56
2021/12/09 12:27:05;;;;;;;6.85;1.70;;;8.60;99.90;;;;;;5018880;28;20084;-57
2021/12/09 12:38:02;;;;;;;4.88;1.80;;;8.60;99.90;;;;;;5020854;28;20527;-56
2021/12/09 12:40:42;;;;;;;6.93;2.15;;;8.60;99.90;;;;;;5020215;28;20085;-56
2021/12/09 12:43:16;;;;;;;5.28;1.60;;;8.60;99.90;;;;;;5018236;28;20633;-56
2021/12/09 12:46:10;;;;;;;4.10;1.85;;;8.60;99.90;;;;;;5019267;28;20081;-54
2021/12/09 12:51:23;;;;;;;8.13;2.53;;;8.50;99.90;;;;;;5019567;28;20140;-55
2021/12/09 12:53:56;;;;;;;3.08;1.27;;;8.50;99.90;;;;;;5018983;28;20810;-57
2021/12/09 12:56:32;;;;;;;6.85;1.58;;;8.50;99.90;;;;;;5019576;28;20140;-56
2021/12/09 12:59:06;;;;;;;3.53;1.30;;;8.50;99.90;;;;;;5019985;28;20156;-56
2021/12/09 13:01:35;;;;;;;4.03;1.23;;;8.60;99.90;;;;;;5018667;28;20144;-56
2021/12/09 13:11:02;;;;;;;3.15;1.48;;;8.90;99.90;;;;;;5016211;28;20053;-54
2021/12/09 13:19:18;;;;;;;6.13;2.10;;;8.80;99.90;;;;;;5011578;28;20148;-56
2021/12/09 13:21:45;;;;;;;7.30;1.73;;;8.90;99.90;;;;;;5018364;28;20164;-56
2021/12/09 13:25:21;;;;;;;4.63;1.90;;;9.00;99.90;;;;;;5018929;28;20065;-59
2021/12/09 13:55:06;;;;;;;;;;;9.80;99.90;;;;;;5018587;28;20152;-56
2021/12/09 13:57:39;;;;;;;3.90;1.75;;;9.70;99.90;;;;;;5018016;28;20018;-55
2021/12/09 14:00:11;;;;;;;3.38;1.63;;;9.70;99.90;;;;;;5015829;28;20515;-55
2021/12/09 14:02:38;;;;;;;4.85;1.50;;;9.70;99.90;;;;;;5018955;28;20073;-54
2021/12/09 14:05:06;;;;;;;4.53;2.20;;;9.60;99.90;;;;;;5018705;28;20624;-55
2021/12/09 14:07:40;;;;;;;3.40;1.58;;;9.60;99.90;;;;;;5017906;28;20092;-53
2021/12/09 14:10:12;;;;;;;4.03;1.88;;;9.50;99.90;;;;;;5018621;28;20114;-55
2021/12/09 14:12:47;;;;;;;4.78;1.92;;;9.40;99.90;;;;;;5018035;28;20049;-53
2021/12/09 14:15:22;;;;;;;2.55;1.10;;;9.30;99.90;;;;;;5017074;28;20136;-55
2021/12/09 14:18:00;;;;;;;3.78;1.40;;;9.30;99.90;;;;;;5019550;28;20075;-55
2021/12/09 14:20:26;;;;;;;3.72;1.60;;;9.30;99.90;;;;;;5017972;28;20089;-53
2021/12/09 14:22:54;;;;;;;3.92;1.10;;;9.30;99.90;;;;;;5018805;28;20085;-56